createdAt,value
2023-03-07T00:01:02.490Z,13.49
2023-03-07T00:02:05.143Z,15.52
2023-03-07T00:03:07.788Z,14.01
2023-03-07T00:04:10.684Z,14.34
2023-03-07T00:05:13.552Z,13.94
2023-03-07T00:06:16.537Z,12.50
2023-03-07T00:07:19.036Z,12.87
2023-03-07T00:08:21.640Z,14.96
2023-03-07T00:09:24.214Z,14.66
2023-03-07T00:10:26.984Z,13.59
2023-03-07T00:11:29.530Z,14.64
2023-03-07T00:12:32.116Z,13.17
2023-03-07T00:13:34.669Z,14.55
2023-03-07T00:14:37.222Z,14.47
2023-03-07T00:15:39.590Z,13.31
2023-03-07T00:16:42.358Z,13.34
2023-03-07T00:17:45.227Z,13.24
2023-03-07T00:18:47.795Z,12.60
2023-03-07T00:19:50.351Z,13.14
2023-03-07T00:20:52.946Z,13.18
2023-03-07T00:21:55.697Z,13.86
2023-03-07T00:22:58.301Z,13.73
2023-03-07T00:24:01.115Z,14.01
2023-03-07T00:25:03.681Z,13.14
2023-03-07T00:26:06.635Z,14.14
2023-03-07T00:27:09.188Z,15.14
2023-03-07T00:28:11.764Z,13.85
2023-03-07T00:29:14.326Z,14.81
2023-03-07T00:30:16.890Z,13.39
2023-03-07T00:31:19.522Z,13.83
2023-03-07T00:32:22.099Z,12.78
2023-03-07T00:33:24.661Z,13.31
2023-03-07T00:34:27.672Z,13.85
2023-03-07T00:35:30.323Z,13.30
2023-03-07T00:36:33.330Z,12.42
2023-03-07T00:37:35.908Z,13.83
2023-03-07T00:38:38.517Z,14.11
2023-03-07T00:39:41.071Z,13.00
2023-03-07T00:40:43.858Z,13.36
2023-03-07T00:41:46.415Z,12.85
2023-03-07T00:42:49.001Z,13.04
2023-03-07T00:43:51.560Z,12.16
2023-03-07T00:44:54.169Z,12.57
2023-03-07T00:45:56.755Z,13.24
2023-03-07T00:46:59.758Z,12.50
2023-03-07T00:48:02.399Z,12.20
2023-03-07T00:49:04.899Z,13.41
2023-03-07T00:50:08.408Z,14.56
2023-03-07T00:51:10.956Z,12.82
2023-03-07T00:52:13.597Z,12.81
2023-03-07T00:53:16.077Z,12.44
2023-03-07T00:54:18.635Z,12.25
2023-03-07T00:55:21.210Z,12.67
2023-03-07T00:56:24.096Z,13.18
2023-03-07T00:57:26.827Z,12.99
2023-03-07T00:58:29.384Z,12.98
2023-03-07T00:59:31.994Z,12.11
2023-03-07T01:00:34.820Z,11.59
2023-03-07T01:01:37.433Z,12.48
2023-03-07T01:02:40.053Z,12.95
2023-03-07T01:03:42.604Z,13.56
2023-03-07T01:04:45.160Z,13.37
2023-03-07T01:05:47.792Z,11.98
2023-03-07T01:06:50.508Z,14.34
2023-03-07T01:07:53.056Z,12.58
2023-03-07T01:08:55.620Z,14.29
2023-03-07T01:09:58.211Z,13.43
2023-03-07T01:11:00.836Z,12.71
2023-03-07T01:12:03.410Z,11.97
2023-03-07T01:13:05.987Z,11.81
2023-03-07T01:14:08.583Z,12.70
2023-03-07T01:15:11.197Z,11.07
2023-03-07T01:16:14.845Z,11.10
2023-03-07T01:17:17.432Z,11.43
2023-03-07T01:18:19.991Z,12.25
2023-03-07T01:19:22.558Z,12.00
2023-03-07T01:20:25.464Z,11.36
2023-03-07T01:21:28.330Z,12.00
2023-03-07T01:22:31.088Z,11.32
2023-03-07T01:23:33.662Z,11.83
2023-03-07T01:24:36.231Z,11.50
2023-03-07T01:25:38.849Z,11.73
2023-03-07T01:26:41.490Z,11.98
2023-03-07T01:27:44.128Z,12.08
2023-03-07T01:28:46.624Z,13.19
2023-03-07T01:29:49.196Z,12.85
2023-03-07T01:30:51.766Z,13.77
2023-03-07T01:31:54.346Z,12.30
2023-03-07T01:32:56.885Z,12.10
2023-03-07T01:33:59.453Z,12.49
2023-03-07T01:35:02.038Z,12.29
2023-03-07T01:36:05.068Z,12.39
2023-03-07T01:37:07.858Z,13.28
2023-03-07T01:38:10.413Z,13.65
2023-03-07T01:39:12.974Z,13.25
2023-03-07T01:40:15.835Z,13.24
2023-03-07T01:41:18.417Z,12.47
2023-03-07T01:42:20.986Z,12.23
2023-03-07T01:43:23.620Z,12.37
2023-03-07T01:44:26.293Z,13.82
2023-03-07T01:45:28.839Z,13.49
2023-03-07T01:46:31.611Z,13.26
2023-03-07T01:47:34.212Z,12.75
2023-03-07T01:48:36.971Z,12.63
2023-03-07T01:49:39.588Z,13.81
2023-03-07T01:50:42.511Z,13.03
2023-03-07T01:51:45.121Z,12.70
2023-03-07T01:52:47.671Z,13.25
2023-03-07T01:53:50.241Z,13.42
2023-03-07T01:54:52.799Z,14.01
2023-03-07T01:55:55.364Z,13.03
2023-03-07T01:56:58.225Z,13.61
2023-03-07T01:58:00.792Z,14.49
2023-03-07T01:59:03.404Z,16.13
2023-03-07T02:00:06.293Z,15.63
2023-03-07T02:01:08.912Z,14.74
2023-03-07T02:02:11.612Z,15.34
2023-03-07T02:03:14.288Z,15.36
2023-03-07T02:04:16.883Z,16.53
2023-03-07T02:05:19.423Z,18.25
2023-03-07T02:06:22.315Z,16.34
2023-03-07T02:07:24.877Z,14.69
2023-03-07T02:08:27.482Z,15.26
2023-03-07T02:09:30.097Z,14.11
2023-03-07T02:10:32.966Z,14.54
2023-03-07T02:11:35.625Z,14.56
2023-03-07T02:12:38.210Z,12.66
2023-03-07T02:13:40.794Z,12.99
2023-03-07T02:14:43.375Z,13.33
2023-03-07T02:15:45.947Z,13.23
2023-03-07T02:16:48.685Z,13.16
2023-03-07T02:17:51.261Z,14.27
2023-03-07T02:18:53.828Z,14.44
2023-03-07T02:19:56.392Z,14.27
2023-03-07T02:20:59.050Z,15.39
2023-03-07T02:22:01.607Z,15.20
2023-03-07T02:23:04.163Z,14.83
2023-03-07T02:24:06.707Z,15.16
2023-03-07T02:25:09.273Z,13.80
2023-03-07T02:26:12.037Z,13.11
2023-03-07T02:27:14.633Z,15.75
2023-03-07T02:28:17.221Z,15.48
2023-03-07T02:29:19.771Z,14.83
2023-03-07T02:30:22.397Z,15.26
2023-03-07T02:31:24.959Z,14.61
2023-03-07T02:32:27.556Z,14.43
2023-03-07T02:33:30.168Z,13.73
2023-03-07T02:34:32.825Z,14.83
2023-03-07T02:35:35.355Z,15.28
2023-03-07T02:36:38.193Z,14.06
2023-03-07T02:37:40.682Z,14.31
2023-03-07T02:38:43.249Z,13.99
2023-03-07T02:39:45.880Z,15.15
2023-03-07T02:40:49.033Z,15.32
2023-03-07T02:41:51.534Z,13.56
2023-03-07T02:42:54.118Z,14.08
2023-03-07T02:43:56.672Z,14.68
2023-03-07T02:44:59.229Z,14.35
2023-03-07T02:46:01.916Z,13.15
2023-03-07T02:47:04.502Z,14.07
2023-03-07T02:48:07.081Z,13.19
2023-03-07T02:49:09.647Z,14.08
2023-03-07T02:50:12.517Z,14.59
2023-03-07T02:51:15.084Z,15.77
2023-03-07T02:52:17.639Z,14.79
2023-03-07T02:53:20.226Z,14.06
2023-03-07T02:54:22.815Z,14.26
2023-03-07T02:55:25.493Z,14.73
2023-03-07T02:56:28.255Z,15.16
2023-03-07T02:57:30.811Z,15.27
2023-03-07T02:58:33.372Z,15.06
2023-03-07T02:59:35.935Z,14.67
2023-03-07T03:00:38.589Z,14.26
2023-03-07T03:01:41.194Z,14.09
2023-03-07T03:02:43.995Z,13.79
2023-03-07T03:03:46.646Z,13.37
2023-03-07T03:04:49.231Z,13.10
2023-03-07T03:05:51.783Z,13.59
2023-03-07T03:06:54.352Z,15.13
2023-03-07T03:07:56.908Z,15.76
2023-03-07T03:08:59.480Z,15.05
2023-03-07T03:10:02.034Z,16.21
2023-03-07T03:11:04.586Z,14.19
2023-03-07T03:12:07.149Z,14.54
2023-03-07T03:13:09.764Z,14.57
2023-03-07T03:14:12.222Z,13.84
2023-03-07T03:15:14.838Z,14.08
2023-03-07T03:16:17.459Z,13.85
2023-03-07T03:17:20.113Z,13.79
2023-03-07T03:18:22.576Z,14.53
2023-03-07T03:19:25.324Z,14.13
2023-03-07T03:20:28.079Z,13.71
2023-03-07T03:21:30.638Z,14.77
2023-03-07T03:22:33.199Z,14.75
2023-03-07T03:23:35.755Z,13.09
2023-03-07T03:24:38.345Z,15.17
2023-03-07T03:25:40.886Z,14.75
2023-03-07T03:26:43.772Z,13.55
2023-03-07T03:27:46.380Z,14.55
2023-03-07T03:28:48.832Z,12.89
2023-03-07T03:29:51.386Z,15.17
2023-03-07T03:30:54.217Z,14.59
2023-03-07T03:31:56.811Z,12.99
2023-03-07T03:32:59.403Z,13.87
2023-03-07T03:34:02.076Z,14.28
2023-03-07T03:35:04.887Z,14.38
2023-03-07T03:36:07.821Z,14.07
2023-03-07T03:37:10.478Z,15.32
2023-03-07T03:38:13.077Z,15.07
2023-03-07T03:39:15.622Z,13.78
2023-03-07T03:40:18.489Z,14.53
2023-03-07T03:41:21.045Z,14.23
2023-03-07T03:42:23.607Z,14.26
2023-03-07T03:43:26.171Z,14.46
2023-03-07T03:44:28.718Z,15.28
2023-03-07T03:45:31.317Z,14.15
2023-03-07T03:46:34.194Z,15.49
2023-03-07T03:47:37.103Z,13.31
2023-03-07T03:48:39.633Z,15.02
2023-03-07T03:49:42.254Z,15.81
2023-03-07T03:50:44.998Z,14.73
2023-03-07T03:51:47.556Z,15.08
2023-03-07T03:52:50.151Z,15.41
2023-03-07T03:53:52.708Z,15.41
2023-03-07T03:54:55.293Z,15.51
2023-03-07T03:55:57.848Z,16.47
2023-03-07T03:57:00.654Z,16.52
2023-03-07T03:58:03.227Z,16.81
2023-03-07T03:59:05.780Z,15.63
2023-03-07T04:00:08.640Z,16.77
2023-03-07T04:01:11.236Z,15.14
2023-03-07T04:02:13.787Z,16.67
2023-03-07T04:03:16.356Z,15.24
2023-03-07T04:04:18.908Z,17.53
2023-03-07T04:05:21.472Z,18.17
2023-03-07T04:06:24.370Z,18.17
2023-03-07T04:07:26.936Z,19.29
2023-03-07T04:08:29.851Z,19.16
2023-03-07T04:09:32.303Z,22.45
2023-03-07T04:10:34.957Z,25.85
2023-03-07T04:11:37.524Z,23.89
2023-03-07T04:12:40.094Z,24.89
2023-03-07T04:13:42.548Z,25.94
2023-03-07T04:14:45.103Z,24.98
2023-03-07T04:15:47.579Z,27.34
2023-03-07T04:16:50.477Z,25.14
2023-03-07T04:17:53.041Z,24.55
2023-03-07T04:18:55.509Z,21.11
2023-03-07T04:19:58.047Z,20.87
2023-03-07T04:21:00.701Z,19.57
2023-03-07T04:22:03.284Z,19.39
2023-03-07T04:23:05.908Z,18.64
2023-03-07T04:24:08.528Z,18.75
2023-03-07T04:25:10.981Z,19.46
2023-03-07T04:26:14.148Z,20.19
2023-03-07T04:27:16.715Z,18.85
2023-03-07T04:28:19.360Z,19.93
2023-03-07T04:29:21.819Z,19.11
2023-03-07T04:30:24.823Z,19.06
2023-03-07T04:31:27.404Z,17.65
2023-03-07T04:32:30.022Z,16.41
2023-03-07T04:33:32.843Z,18.73
2023-03-07T04:34:35.439Z,15.74
2023-03-07T04:35:38.050Z,15.10
2023-03-07T04:36:41.140Z,15.81
2023-03-07T04:37:43.826Z,16.81
2023-03-07T04:38:46.435Z,15.97
2023-03-07T04:39:48.994Z,15.99
2023-03-07T04:40:51.810Z,15.61
2023-03-07T04:41:54.360Z,16.20
2023-03-07T04:42:56.819Z,16.58
2023-03-07T04:43:59.388Z,28.09
2023-03-07T04:45:04.478Z,21.29
2023-03-07T04:46:06.790Z,36.68
2023-03-07T04:47:09.585Z,43.08
2023-03-07T04:48:12.143Z,38.47
2023-03-07T04:49:14.704Z,42.61
2023-03-07T04:50:17.360Z,39.55
2023-03-07T04:51:19.942Z,40.22
2023-03-07T04:52:22.497Z,41.53
2023-03-07T04:53:25.057Z,38.15
2023-03-07T04:54:27.764Z,34.14
2023-03-07T04:55:30.334Z,27.62
2023-03-07T04:56:33.025Z,36.85
2023-03-07T04:57:35.589Z,35.64
2023-03-07T04:58:38.148Z,34.20
2023-03-07T04:59:41.272Z,30.46
2023-03-07T05:00:44.046Z,25.24
2023-03-07T05:01:46.654Z,22.72
2023-03-07T05:02:49.217Z,23.53
2023-03-07T05:03:51.783Z,16.67
2023-03-07T05:04:54.357Z,18.85
2023-03-07T05:05:56.967Z,14.85
2023-03-07T05:06:59.776Z,15.68
2023-03-07T05:08:02.332Z,15.61
2023-03-07T05:09:04.892Z,14.93
2023-03-07T05:10:07.887Z,15.14
2023-03-07T05:11:10.489Z,14.26
2023-03-07T05:12:13.280Z,12.86
2023-03-07T05:13:16.039Z,14.32
2023-03-07T05:14:18.636Z,14.99
2023-03-07T05:15:21.301Z,14.31
2023-03-07T05:16:23.776Z,13.32
2023-03-07T05:17:26.241Z,13.55
2023-03-07T05:18:28.808Z,15.27
2023-03-07T05:19:31.374Z,14.29
2023-03-07T05:20:34.196Z,14.42
2023-03-07T05:21:36.751Z,15.33
2023-03-07T05:22:39.314Z,14.57
2023-03-07T05:23:41.903Z,14.03
2023-03-07T05:24:44.492Z,15.09
2023-03-07T05:25:47.199Z,14.53
2023-03-07T05:26:49.834Z,14.32
2023-03-07T05:27:52.389Z,14.50
2023-03-07T05:28:54.954Z,13.83
2023-03-07T05:29:57.541Z,14.34
2023-03-07T05:31:00.360Z,13.22
2023-03-07T05:32:03.204Z,14.61
2023-03-07T05:33:05.933Z,14.68
2023-03-07T05:34:08.500Z,14.70
2023-03-07T05:35:11.056Z,14.70
2023-03-07T05:36:14.175Z,14.10
2023-03-07T05:37:16.735Z,15.24
2023-03-07T05:38:19.300Z,14.61
2023-03-07T05:39:21.860Z,15.83
2023-03-07T05:40:24.528Z,14.69
2023-03-07T05:41:27.185Z,14.55
2023-03-07T05:42:29.798Z,16.30
2023-03-07T05:43:32.364Z,14.10
2023-03-07T05:44:34.972Z,16.90
2023-03-07T05:45:37.581Z,14.69
2023-03-07T05:46:40.572Z,15.04
2023-03-07T05:47:43.126Z,15.55
2023-03-07T05:48:45.658Z,15.93
2023-03-07T05:49:48.273Z,16.25
2023-03-07T05:50:50.929Z,17.81
2023-03-07T05:51:53.542Z,15.92
2023-03-07T05:52:56.112Z,16.09
2023-03-07T05:53:58.671Z,17.39
2023-03-07T05:55:01.233Z,17.15
2023-03-07T05:56:04.002Z,16.53
2023-03-07T05:57:06.675Z,16.06
2023-03-07T05:58:09.236Z,16.52
2023-03-07T05:59:11.815Z,17.27
2023-03-07T06:00:14.683Z,15.79
2023-03-07T06:01:17.243Z,16.82
2023-03-07T06:02:19.922Z,16.71
2023-03-07T06:03:22.510Z,17.22
2023-03-07T06:04:25.327Z,17.18
2023-03-07T06:05:27.870Z,16.41
2023-03-07T06:06:31.024Z,15.40
2023-03-07T06:07:33.580Z,15.15
2023-03-07T06:08:36.141Z,16.35
2023-03-07T06:09:38.711Z,14.67
2023-03-07T06:10:41.703Z,16.50
2023-03-07T06:11:44.308Z,16.23
2023-03-07T06:12:46.897Z,13.83
2023-03-07T06:13:49.450Z,15.37
2023-03-07T06:14:52.033Z,15.63
2023-03-07T06:15:54.621Z,15.55
2023-03-07T06:16:57.437Z,16.93
2023-03-07T06:18:00.041Z,15.79
2023-03-07T06:19:02.603Z,15.51
2023-03-07T06:20:05.668Z,14.39
2023-03-07T06:21:08.232Z,17.12
2023-03-07T06:22:11.028Z,16.79
2023-03-07T06:23:13.637Z,16.33
2023-03-07T06:24:16.199Z,14.10
2023-03-07T06:25:18.816Z,15.89
2023-03-07T06:26:21.706Z,16.33
2023-03-07T06:27:24.247Z,16.07
2023-03-07T06:28:26.823Z,16.25
2023-03-07T06:29:29.393Z,16.55
2023-03-07T06:30:32.051Z,16.15
2023-03-07T06:31:35.077Z,19.82
2023-03-07T06:32:37.723Z,16.07
2023-03-07T06:33:40.383Z,17.77
2023-03-07T06:34:42.962Z,16.23
2023-03-07T06:35:45.559Z,17.11
2023-03-07T06:36:48.718Z,19.10
2023-03-07T06:37:51.253Z,16.81
2023-03-07T06:38:53.823Z,18.23
2023-03-07T06:39:56.390Z,17.51
2023-03-07T06:40:59.051Z,19.45
2023-03-07T06:42:01.618Z,17.79
2023-03-07T06:43:04.192Z,16.09
2023-03-07T06:44:06.913Z,17.65
2023-03-07T06:45:09.502Z,18.52
2023-03-07T06:46:12.844Z,18.52
2023-03-07T06:47:15.627Z,18.44
2023-03-07T06:48:18.207Z,17.13
2023-03-07T06:49:20.827Z,18.76
2023-03-07T06:50:34.536Z,18.07
2023-03-07T06:51:28.075Z,16.33
2023-03-07T06:52:30.525Z,17.69
2023-03-07T06:53:33.109Z,17.77
2023-03-07T06:54:35.699Z,17.98
2023-03-07T06:55:38.287Z,19.39
2023-03-07T06:56:42.629Z,18.79
2023-03-07T06:57:45.694Z,16.47
2023-03-07T06:58:48.226Z,17.31
2023-03-07T06:59:50.723Z,18.37
2023-03-07T07:00:53.408Z,15.21
2023-03-07T07:01:56.172Z,17.67
2023-03-07T07:02:59.191Z,19.79
2023-03-07T07:04:02.018Z,19.02
2023-03-07T07:05:04.597Z,19.19
2023-03-07T07:06:07.693Z,17.53
2023-03-07T07:07:10.260Z,17.30
2023-03-07T07:08:12.816Z,16.27
2023-03-07T07:09:15.401Z,16.77
2023-03-07T07:10:18.354Z,15.49
2023-03-07T07:11:20.970Z,17.81
2023-03-07T07:12:23.550Z,15.05
2023-03-07T07:13:26.107Z,17.45
2023-03-07T07:14:28.660Z,15.11
2023-03-07T07:15:31.240Z,15.07
2023-03-07T07:16:34.179Z,14.63
2023-03-07T07:17:36.775Z,13.77
2023-03-07T07:18:39.332Z,14.48
2023-03-07T07:19:41.795Z,16.35
2023-03-07T07:20:44.824Z,15.09
2023-03-07T07:21:47.389Z,15.11
2023-03-07T07:22:49.951Z,15.59
2023-03-07T07:23:52.508Z,16.36
2023-03-07T07:24:55.053Z,15.12
2023-03-07T07:25:57.535Z,15.11
2023-03-07T07:27:00.318Z,14.90
2023-03-07T07:28:02.895Z,14.34
2023-03-07T07:29:05.522Z,14.20
2023-03-07T07:30:08.206Z,15.41
2023-03-07T07:31:10.757Z,15.39
2023-03-07T07:32:13.456Z,14.39
2023-03-07T07:33:16.358Z,15.96
2023-03-07T07:34:19.193Z,15.23
2023-03-07T07:35:21.754Z,15.51
2023-03-07T07:36:24.312Z,16.49
2023-03-07T07:37:26.901Z,15.07
2023-03-07T07:38:29.455Z,15.28
2023-03-07T07:39:32.018Z,16.46
2023-03-07T07:40:34.606Z,16.53
2023-03-07T07:41:37.136Z,15.41
2023-03-07T07:42:39.707Z,13.73
2023-03-07T07:43:42.700Z,16.58
2023-03-07T07:44:45.568Z,14.96
2023-03-07T07:45:48.163Z,15.27
2023-03-07T07:46:51.156Z,15.97
2023-03-07T07:47:53.619Z,16.96
2023-03-07T07:48:56.190Z,14.93
2023-03-07T07:49:58.747Z,16.13
2023-03-07T07:51:01.734Z,15.72
2023-03-07T07:52:04.319Z,15.23
2023-03-07T07:53:06.904Z,14.49
2023-03-07T07:54:09.472Z,15.60
2023-03-07T07:55:12.023Z,17.74
2023-03-07T07:56:14.941Z,15.71
2023-03-07T07:57:17.399Z,16.99
2023-03-07T07:58:19.969Z,14.11
2023-03-07T07:59:22.522Z,15.13
2023-03-07T08:00:25.289Z,14.82
2023-03-07T08:01:27.870Z,13.36
2023-03-07T08:02:30.499Z,14.28
2023-03-07T08:03:33.435Z,14.66
2023-03-07T08:04:35.951Z,15.64
2023-03-07T08:05:38.621Z,13.85
2023-03-07T08:06:41.296Z,12.20
2023-03-07T08:07:43.880Z,16.10
2023-03-07T08:08:46.420Z,14.59
2023-03-07T08:09:49.042Z,15.58
2023-03-07T08:10:51.758Z,13.61
2023-03-07T08:11:54.436Z,14.16
2023-03-07T08:12:57.123Z,15.56
2023-03-07T08:13:59.683Z,15.81
2023-03-07T08:15:02.228Z,14.50
2023-03-07T08:16:05.024Z,14.46
2023-03-07T08:17:07.562Z,14.73
2023-03-07T08:18:10.124Z,13.53
2023-03-07T08:19:12.688Z,15.44
2023-03-07T08:20:15.343Z,13.80
2023-03-07T08:21:17.937Z,13.74
2023-03-07T08:22:20.521Z,14.51
2023-03-07T08:23:23.090Z,15.16
2023-03-07T08:24:39.701Z,13.14
2023-03-07T08:25:30.080Z,18.28
2023-03-07T08:26:32.949Z,14.68
2023-03-07T08:27:35.532Z,17.31
2023-03-07T08:28:38.099Z,13.91
2023-03-07T08:29:40.732Z,13.85
2023-03-07T08:30:43.585Z,13.82
2023-03-07T08:31:46.151Z,12.42
2023-03-07T08:32:48.723Z,12.93
2023-03-07T08:33:51.438Z,14.83
2023-03-07T08:34:54.033Z,17.60
2023-03-07T08:35:56.592Z,18.99
2023-03-07T08:36:59.148Z,18.46
2023-03-07T08:38:01.565Z,16.78
2023-03-07T08:39:04.113Z,13.23
2023-03-07T08:40:06.985Z,11.97
2023-03-07T08:41:09.546Z,14.03
2023-03-07T08:42:12.447Z,14.24
2023-03-07T08:43:15.004Z,13.24
2023-03-07T08:44:17.600Z,13.15
2023-03-07T08:45:21.866Z,12.19
2023-03-07T08:46:24.661Z,12.98
2023-03-07T08:47:27.595Z,13.32
2023-03-07T08:48:30.276Z,11.83
2023-03-07T08:49:32.843Z,11.71
2023-03-07T08:50:35.525Z,11.42
2023-03-07T08:51:38.046Z,11.79
2023-03-07T08:52:40.679Z,11.14
2023-03-07T08:53:43.459Z,11.21
2023-03-07T08:54:46.030Z,11.01
2023-03-07T08:55:48.619Z,9.64
2023-03-07T08:56:51.325Z,8.65
2023-03-07T08:57:53.947Z,9.86
2023-03-07T08:58:56.498Z,8.12
2023-03-07T08:59:59.057Z,8.23
2023-03-07T09:01:01.729Z,8.77
2023-03-07T09:02:04.312Z,6.85
2023-03-07T09:03:07.005Z,7.99
2023-03-07T09:04:09.584Z,8.19
2023-03-07T09:05:12.158Z,8.71
2023-03-07T09:06:14.943Z,10.22
2023-03-07T09:07:17.579Z,8.59
2023-03-07T09:08:20.129Z,6.77
2023-03-07T09:09:22.694Z,8.75
2023-03-07T09:10:25.644Z,7.71
2023-03-07T09:11:28.312Z,9.15
2023-03-07T09:12:30.906Z,7.93
2023-03-07T09:13:43.016Z,9.09
2023-03-07T09:14:37.853Z,10.23
2023-03-07T09:15:40.410Z,9.09
2023-03-07T09:16:43.266Z,9.45
2023-03-07T09:17:45.906Z,9.38
2023-03-07T09:18:48.519Z,9.23
2023-03-07T09:19:51.093Z,8.31
2023-03-07T09:20:53.885Z,9.13
2023-03-07T09:21:56.424Z,9.81
2023-03-07T09:22:59.015Z,9.25
2023-03-07T09:24:01.786Z,9.53
2023-03-07T09:25:04.363Z,8.89
2023-03-07T09:26:07.297Z,8.94
2023-03-07T09:27:09.861Z,9.73
2023-03-07T09:28:12.450Z,9.87
2023-03-07T09:29:15.233Z,9.31
2023-03-07T09:30:17.918Z,7.85
2023-03-07T09:31:20.966Z,8.34
2023-03-07T09:32:23.507Z,9.17
2023-03-07T09:33:26.117Z,9.33
2023-03-07T09:34:28.734Z,9.13
2023-03-07T09:35:31.484Z,10.31
2023-03-07T09:36:34.232Z,9.25
2023-03-07T09:37:36.797Z,12.39
2023-03-07T09:38:39.381Z,10.88
2023-03-07T09:39:41.977Z,12.35
2023-03-07T09:40:44.582Z,10.37
2023-03-07T09:41:47.141Z,11.47
2023-03-07T09:42:49.706Z,10.55
2023-03-07T09:43:52.276Z,10.81
2023-03-07T09:44:54.894Z,11.51
2023-03-07T09:45:57.519Z,12.05
2023-03-07T09:47:00.348Z,9.79
2023-03-07T09:48:02.856Z,9.96
2023-03-07T09:49:05.418Z,10.57
2023-03-07T09:50:08.337Z,10.12
2023-03-07T09:51:11.992Z,8.81
2023-03-07T09:52:14.913Z,9.61
2023-03-07T09:53:17.472Z,9.57
2023-03-07T09:54:20.102Z,9.53
2023-03-07T09:55:22.721Z,10.38
2023-03-07T09:56:25.573Z,10.59
2023-03-07T09:57:28.132Z,9.91
2023-03-07T09:58:30.691Z,8.75
2023-03-07T09:59:33.157Z,9.60
2023-03-07T10:00:36.302Z,9.76
2023-03-07T10:01:38.889Z,9.69
2023-03-07T10:02:41.457Z,9.21
2023-03-07T10:03:44.052Z,9.74
2023-03-07T10:04:47.019Z,10.05
2023-03-07T10:05:49.632Z,10.54
2023-03-07T10:06:52.521Z,11.01
2023-03-07T10:07:55.090Z,9.61
2023-03-07T10:08:57.661Z,10.14
2023-03-07T10:10:00.242Z,10.43
2023-03-07T10:11:02.806Z,9.93
2023-03-07T10:12:05.406Z,9.63
2023-03-07T10:13:07.927Z,10.50
2023-03-07T10:14:10.505Z,10.16
2023-03-07T10:15:14.323Z,10.36
2023-03-07T10:16:17.368Z,9.98
2023-03-07T10:17:20.220Z,10.59
2023-03-07T10:18:23.175Z,10.71
2023-03-07T10:19:25.752Z,11.89
2023-03-07T10:20:28.824Z,10.54
2023-03-07T10:21:31.461Z,11.27
2023-03-07T10:22:34.031Z,11.85
2023-03-07T10:23:36.623Z,12.12
2023-03-07T10:24:39.533Z,10.03
2023-03-07T10:25:42.089Z,9.99
2023-03-07T10:26:44.810Z,9.64
2023-03-07T10:27:47.459Z,9.09
2023-03-07T10:28:50.033Z,9.27
2023-03-07T10:29:52.711Z,8.71
2023-03-07T10:30:55.478Z,10.35
2023-03-07T10:31:57.992Z,8.84
2023-03-07T10:33:01.494Z,9.61
2023-03-07T10:34:04.442Z,13.34
2023-03-07T10:35:07.115Z,10.43
2023-03-07T10:36:10.752Z,11.49
2023-03-07T10:37:13.421Z,13.05
2023-03-07T10:38:15.987Z,11.82
2023-03-07T10:39:18.562Z,13.85
2023-03-07T10:40:21.332Z,12.16
2023-03-07T10:41:23.892Z,11.56
2023-03-07T10:42:26.626Z,9.35
2023-03-07T10:43:29.233Z,10.60
2023-03-07T10:44:31.790Z,8.63
2023-03-07T10:45:34.854Z,7.66
2023-03-07T10:46:41.566Z,11.78
2023-03-07T10:47:42.339Z,9.41
2023-03-07T10:48:44.961Z,10.41
2023-03-07T10:49:47.518Z,9.90
2023-03-07T10:50:50.606Z,10.17
2023-03-07T10:51:53.690Z,10.00
2023-03-07T10:52:56.329Z,9.17
2023-03-07T10:53:58.892Z,9.24
2023-03-07T10:55:01.565Z,9.42
2023-03-07T10:56:04.436Z,9.59
2023-03-07T10:57:07.063Z,10.88
2023-03-07T10:58:09.833Z,10.91
2023-03-07T10:59:12.404Z,13.15
2023-03-07T11:00:15.405Z,10.17
2023-03-07T11:01:18.022Z,10.94
2023-03-07T11:02:20.743Z,15.66
2023-03-07T11:03:23.427Z,13.94
2023-03-07T11:04:25.985Z,8.94
2023-03-07T11:05:28.567Z,10.27
2023-03-07T11:06:31.515Z,9.98
2023-03-07T11:07:34.023Z,9.19
2023-03-07T11:08:36.628Z,9.41
2023-03-07T11:09:39.338Z,9.06
2023-03-07T11:10:42.160Z,9.71
2023-03-07T11:11:44.748Z,8.64
2023-03-07T11:12:47.310Z,8.83
2023-03-07T11:13:49.926Z,9.25
2023-03-07T11:14:52.481Z,9.09
2023-03-07T11:16:10.624Z,8.83
2023-03-07T11:16:59.734Z,9.42
2023-03-07T11:18:02.178Z,8.67
2023-03-07T11:19:04.778Z,9.14
2023-03-07T11:20:07.627Z,8.90
2023-03-07T11:21:10.183Z,9.12
2023-03-07T11:22:12.761Z,8.81
2023-03-07T11:23:15.323Z,9.21
2023-03-07T11:24:17.973Z,7.36
2023-03-07T11:25:20.583Z,8.89
2023-03-07T11:26:23.343Z,8.96
2023-03-07T11:27:25.911Z,11.82
2023-03-07T11:28:28.792Z,11.34
2023-03-07T11:29:31.386Z,8.67
2023-03-07T11:30:34.358Z,8.98
2023-03-07T11:31:36.971Z,11.66
2023-03-07T11:32:39.616Z,16.30
2023-03-07T11:33:56.731Z,17.62
2023-03-07T11:34:46.718Z,11.83
2023-03-07T11:35:49.350Z,11.93
2023-03-07T11:36:52.290Z,9.91
2023-03-07T11:37:54.855Z,9.59
2023-03-07T11:38:57.790Z,10.24
2023-03-07T11:40:00.564Z,10.54
2023-03-07T11:41:03.123Z,9.45
2023-03-07T11:42:05.697Z,9.36
2023-03-07T11:43:08.563Z,10.14
2023-03-07T11:44:11.152Z,7.85
2023-03-07T11:45:13.718Z,8.23
2023-03-07T11:46:16.560Z,7.56
2023-03-07T11:47:19.124Z,8.30
2023-03-07T11:48:21.685Z,7.86
2023-03-07T11:49:24.271Z,7.96
2023-03-07T11:50:26.956Z,8.01
2023-03-07T11:51:29.592Z,8.09
2023-03-07T11:52:32.218Z,8.02
2023-03-07T11:53:34.759Z,8.75
2023-03-07T11:54:37.358Z,8.13
2023-03-07T11:55:39.881Z,10.12
2023-03-07T11:56:42.657Z,10.02
2023-03-07T11:57:45.254Z,9.66
2023-03-07T11:58:47.837Z,8.64
2023-03-07T11:59:50.410Z,8.29
2023-03-07T12:00:53.336Z,8.12
2023-03-07T12:01:55.898Z,8.83
2023-03-07T12:02:58.534Z,8.44
2023-03-07T12:04:01.086Z,8.38
2023-03-07T12:05:03.658Z,7.75
2023-03-07T12:06:06.683Z,7.13
2023-03-07T12:07:09.300Z,7.62
2023-03-07T12:08:11.893Z,7.05
2023-03-07T12:09:14.464Z,7.75
2023-03-07T12:10:17.363Z,7.81
2023-03-07T12:11:19.933Z,8.11
2023-03-07T12:12:22.478Z,8.53
2023-03-07T12:13:25.100Z,7.51
2023-03-07T12:14:27.641Z,7.49
2023-03-07T12:15:30.221Z,7.57
2023-03-07T12:16:33.102Z,7.57
2023-03-07T12:17:35.637Z,6.93
2023-03-07T12:18:38.274Z,7.24
2023-03-07T12:19:40.841Z,7.97
2023-03-07T12:20:43.430Z,7.71
2023-03-07T12:21:46.041Z,7.82
2023-03-07T12:22:48.663Z,6.80
2023-03-07T12:23:51.247Z,7.15
2023-03-07T12:24:53.838Z,7.90
2023-03-07T12:25:56.408Z,7.64
2023-03-07T12:26:59.078Z,6.79
2023-03-07T12:28:01.755Z,7.47
2023-03-07T12:29:04.344Z,6.61
2023-03-07T12:30:07.158Z,7.04
2023-03-07T12:31:09.799Z,8.26
2023-03-07T12:32:12.663Z,10.53
2023-03-07T12:33:15.626Z,8.26
2023-03-07T12:34:18.428Z,7.65
2023-03-07T12:35:21.224Z,7.35
2023-03-07T12:36:24.378Z,7.16
2023-03-07T12:37:26.936Z,7.99
2023-03-07T12:38:29.500Z,7.73
2023-03-07T12:39:32.445Z,8.51
2023-03-07T12:40:35.344Z,8.36
2023-03-07T12:41:37.935Z,7.71
2023-03-07T12:42:40.489Z,6.93
2023-03-07T12:43:43.087Z,8.08
2023-03-07T12:44:45.713Z,8.43
2023-03-07T12:45:48.426Z,8.11
2023-03-07T12:46:51.406Z,7.50
2023-03-07T12:47:53.955Z,8.16
2023-03-07T12:48:56.563Z,7.42
2023-03-07T12:49:59.430Z,7.82
2023-03-07T12:51:02.069Z,8.10
2023-03-07T12:52:04.646Z,7.67
2023-03-07T12:53:07.208Z,6.60
2023-03-07T12:54:09.770Z,7.14
2023-03-07T12:55:12.387Z,7.50
2023-03-07T12:56:15.063Z,7.79
2023-03-07T12:57:17.641Z,7.22
2023-03-07T12:58:20.195Z,3.87
2023-03-07T12:59:22.898Z,7.62
2023-03-07T13:00:25.878Z,8.14
2023-03-07T13:01:28.567Z,8.32
2023-03-07T13:02:31.519Z,7.21
2023-03-07T13:03:34.290Z,7.58
2023-03-07T13:04:36.999Z,8.17
2023-03-07T13:05:39.739Z,8.41
2023-03-07T13:06:42.348Z,7.78
2023-03-07T13:07:44.926Z,8.01
2023-03-07T13:08:47.483Z,7.97
2023-03-07T13:09:50.056Z,8.17
2023-03-07T13:10:53.092Z,8.06
2023-03-07T13:11:55.766Z,7.38
2023-03-07T13:12:58.419Z,8.43
2023-03-07T13:14:01.005Z,8.10
2023-03-07T13:15:03.776Z,8.03
2023-03-07T13:16:06.450Z,8.55
2023-03-07T13:17:09.090Z,9.26
2023-03-07T13:18:11.653Z,8.83
2023-03-07T13:19:14.445Z,9.50
2023-03-07T13:20:17.127Z,8.88
2023-03-07T13:21:19.816Z,7.95
2023-03-07T13:22:22.388Z,8.73
2023-03-07T13:23:24.972Z,8.98
2023-03-07T13:24:27.505Z,9.83
2023-03-07T13:25:30.079Z,9.29
2023-03-07T13:26:33.061Z,9.18
2023-03-07T13:27:35.629Z,9.23
2023-03-07T13:28:38.204Z,9.03
2023-03-07T13:29:40.808Z,9.35
2023-03-07T13:30:43.529Z,9.62
2023-03-07T13:31:46.209Z,10.09
2023-03-07T13:32:48.856Z,9.00
2023-03-07T13:33:51.428Z,8.67
2023-03-07T13:34:54.026Z,9.90